Terminal Aerodrome Forecast
Issued by NWS

Home | Current Version | Previous Version | Text Only | Print | Product List | Glossary On
Versions: 1 2 3 4 5 6 7 8 9 10 11 12
000
FTUS43 KLSX 191700
TAFCPS
TAF
KCPS 191738Z 1918/2018 20007KT P6SM SCT250
     FM200300 19006KT P6SM SCT120
     FM201200 25006KT P6SM BKN050
     FM201700 29010KT P6SM SCT050=

USA.gov is the U.S. government's official web portal to all federal, state and local government web resources and services.